sensor_id;sensor_type;location;lat;lon;timestamp;P1;P2;P0
46126;PMS5003;31859;55.030;-1.550;2022-07-23T00:01:32;7;7;
46126;PMS5003;31859;55.030;-1.550;2022-07-23T00:04:00;6;6;
46126;PMS5003;31859;55.030;-1.550;2022-07-23T00:06:26;10;8;
46126;PMS5003;31859;55.030;-1.550;2022-07-23T00:08:53;8;8;
46126;PMS5003;31859;55.030;-1.550;2022-07-23T00:11:21;6;6;
46126;PMS5003;31859;55.030;-1.550;2022-07-23T00:13:48;7;7;
46126;PMS5003;31859;55.030;-1.550;2022-07-23T00:16:15;8;7;
46126;PMS5003;31859;55.030;-1.550;2022-07-23T00:18:43;8;8;
46126;PMS5003;31859;55.030;-1.550;2022-07-23T00:21:09;8;7;
46126;PMS5003;31859;55.030;-1.550;2022-07-23T00:23:37;14;12;
46126;PMS5003;31859;55.030;-1.550;2022-07-23T00:26:04;10;9;
46126;PMS5003;31859;55.030;-1.550;2022-07-23T00:28:31;9;8;
46126;PMS5003;31859;55.030;-1.550;2022-07-23T00:30:58;9;8;
46126;PMS5003;31859;55.030;-1.550;2022-07-23T00:33:25;9;8;
46126;PMS5003;31859;55.030;-1.550;2022-07-23T00:35:52;7;7;
46126;PMS5003;31859;55.030;-1.550;2022-07-23T00:38:19;14;14;
46126;PMS5003;31859;55.030;-1.550;2022-07-23T00:40:46;14;12;
46126;PMS5003;31859;55.030;-1.550;2022-07-23T00:43:13;9;9;
46126;PMS5003;31859;55.030;-1.550;2022-07-23T00:45:41;10;10;
46126;PMS5003;31859;55.030;-1.550;2022-07-23T00:48:08;12;12;
46126;PMS5003;31859;55.030;-1.550;2022-07-23T00:50:36;16;16;
46126;PMS5003;31859;55.030;-1.550;2022-07-23T00:53:03;10;10;
46126;PMS5003;31859;55.030;-1.550;2022-07-23T00:55:31;16;14;
46126;PMS5003;31859;55.030;-1.550;2022-07-23T00:57:59;14;13;
46126;PMS5003;31859;55.030;-1.550;2022-07-23T01:00:28;12;12;
46126;PMS5003;31859;55.030;-1.550;2022-07-23T01:02:56;12;11;
46126;PMS5003;31859;55.030;-1.550;2022-07-23T01:05:23;9;8;
46126;PMS5003;31859;55.030;-1.550;2022-07-23T01:07:51;11;11;
46126;PMS5003;31859;55.030;-1.550;2022-07-23T01:10:19;10;10;
46126;PMS5003;31859;55.030;-1.550;2022-07-23T01:12:46;14;14;
46126;PMS5003;31859;55.030;-1.550;2022-07-23T01:15:13;14;13;
46126;PMS5003;31859;55.030;-1.550;2022-07-23T01:17:40;15;11;
46126;PMS5003;31859;55.030;-1.550;2022-07-23T01:20:08;18;18;
46126;PMS5003;31859;55.030;-1.550;2022-07-23T01:22:35;13;10;
46126;PMS5003;31859;55.030;-1.550;2022-07-23T01:25:02;18;16;
46126;PMS5003;31859;55.030;-1.550;2022-07-23T01:27:30;16;15;
46126;PMS5003;31859;55.030;-1.550;2022-07-23T01:29:57;18;18;
46126;PMS5003;31859;55.030;-1.550;2022-07-23T01:32:26;17;16;
46126;PMS5003;31859;55.030;-1.550;2022-07-23T01:34:53;15;15;
46126;PMS5003;31859;55.030;-1.550;2022-07-23T01:37:20;15;15;
46126;PMS5003;31859;55.030;-1.550;2022-07-23T01:39:48;16;16;
46126;PMS5003;31859;55.030;-1.550;2022-07-23T01:42:15;20;17;
46126;PMS5003;31859;55.030;-1.550;2022-07-23T01:44:42;19;19;
46126;PMS5003;31859;55.030;-1.550;2022-07-23T01:47:15;17;15;
46126;PMS5003;31859;55.030;-1.550;2022-07-23T01:49:42;14;13;
46126;PMS5003;31859;55.030;-1.550;2022-07-23T01:52:09;10;9;
46126;PMS5003;31859;55.030;-1.550;2022-07-23T01:54:37;14;13;
46126;PMS5003;31859;55.030;-1.550;2022-07-23T01:57:05;12;12;
46126;PMS5003;31859;55.030;-1.550;2022-07-23T01:59:33;14;14;
46126;PMS5003;31859;55.030;-1.550;2022-07-23T02:02:00;13;12;
46126;PMS5003;31859;55.030;-1.550;2022-07-23T02:04:27;17;17;
46126;PMS5003;31859;55.030;-1.550;2022-07-23T02:06:55;15;12;
46126;PMS5003;31859;55.030;-1.550;2022-07-23T02:09:22;16;14;
46126;PMS5003;31859;55.030;-1.550;2022-07-23T02:11:50;15;14;
46126;PMS5003;31859;55.030;-1.550;2022-07-23T02:14:18;12;12;
46126;PMS5003;31859;55.030;-1.550;2022-07-23T02:16:45;16;15;
46126;PMS5003;31859;55.030;-1.550;2022-07-23T02:19:12;16;15;
46126;PMS5003;31859;55.030;-1.550;2022-07-23T02:21:39;10;10;
46126;PMS5003;31859;55.030;-1.550;2022-07-23T02:24:06;13;12;
46126;PMS5003;31859;55.030;-1.550;2022-07-23T02:26:34;11;11;
46126;PMS5003;31859;55.030;-1.550;2022-07-23T02:29:01;13;10;
46126;PMS5003;31859;55.030;-1.550;2022-07-23T02:31:29;13;12;
46126;PMS5003;31859;55.030;-1.550;2022-07-23T02:33:57;13;13;
46126;PMS5003;31859;55.030;-1.550;2022-07-23T02:36:23;9;9;
46126;PMS5003;31859;55.030;-1.550;2022-07-23T02:38:51;12;11;
46126;PMS5003;31859;55.030;-1.550;2022-07-23T02:41:18;9;8;
46126;PMS5003;31859;55.030;-1.550;2022-07-23T02:43:45;11;9;
46126;PMS5003;31859;55.030;-1.550;2022-07-23T02:46:12;12;11;
46126;PMS5003;31859;55.030;-1.550;2022-07-23T02:48:39;6;6;
46126;PMS5003;31859;55.030;-1.550;2022-07-23T02:51:06;9;7;
46126;PMS5003;31859;55.030;-1.550;2022-07-23T02:53:33;8;6;
46126;PMS5003;31859;55.030;-1.550;2022-07-23T02:56:00;8;8;
46126;PMS5003;31859;55.030;-1.550;2022-07-23T02:58:27;9;8;
46126;PMS5003;31859;55.030;-1.550;2022-07-23T03:00:54;6;6;
46126;PMS5003;31859;55.030;-1.550;2022-07-23T03:03:21;6;6;
46126;PMS5003;31859;55.030;-1.550;2022-07-23T03:05:48;11;9;
46126;PMS5003;31859;55.030;-1.550;2022-07-23T03:08:16;8;8;
46126;PMS5003;31859;55.030;-1.550;2022-07-23T03:10:44;7;7;
46126;PMS5003;31859;55.030;-1.550;2022-07-23T03:13:11;8;8;
46126;PMS5003;31859;55.030;-1.550;2022-07-23T03:15:38;8;8;
46126;PMS5003;31859;55.030;-1.550;2022-07-23T03:18:05;9;9;
46126;PMS5003;31859;55.030;-1.550;2022-07-23T03:20:33;10;10;
46126;PMS5003;31859;55.030;-1.550;2022-07-23T03:23:00;11;10;
46126;PMS5003;31859;55.030;-1.550;2022-07-23T03:25:27;10;8;
46126;PMS5003;31859;55.030;-1.550;2022-07-23T03:27:55;11;11;
46126;PMS5003;31859;55.030;-1.550;2022-07-23T03:30:22;12;10;
46126;PMS5003;31859;55.030;-1.550;2022-07-23T03:32:49;10;8;
46126;PMS5003;31859;55.030;-1.550;2022-07-23T03:35:17;8;8;
46126;PMS5003;31859;55.030;-1.550;2022-07-23T03:37:44;11;9;
46126;PMS5003;31859;55.030;-1.550;2022-07-23T03:40:11;9;7;
46126;PMS5003;31859;55.030;-1.550;2022-07-23T03:42:38;9;9;
46126;PMS5003;31859;55.030;-1.550;2022-07-23T03:45:06;8;8;
46126;PMS5003;31859;55.030;-1.550;2022-07-23T03:47:33;8;8;
46126;PMS5003;31859;55.030;-1.550;2022-07-23T03:50:00;9;9;
46126;PMS5003;31859;55.030;-1.550;2022-07-23T03:52:27;13;12;
46126;PMS5003;31859;55.030;-1.550;2022-07-23T03:54:54;9;9;
46126;PMS5003;31859;55.030;-1.550;2022-07-23T03:57:21;9;9;
46126;PMS5003;31859;55.030;-1.550;2022-07-23T03:59:48;10;10;
46126;PMS5003;31859;55.030;-1.550;2022-07-23T04:02:15;11;8;
46126;PMS5003;31859;55.030;-1.550;2022-07-23T04:04:42;8;7;
46126;PMS5003;31859;55.030;-1.550;2022-07-23T04:07:09;13;11;
46126;PMS5003;31859;55.030;-1.550;2022-07-23T04:09:37;8;8;
46126;PMS5003;31859;55.030;-1.550;2022-07-23T04:12:04;14;14;
46126;PMS5003;31859;55.030;-1.550;2022-07-23T04:14:32;12;10;
46126;PMS5003;31859;55.030;-1.550;2022-07-23T04:17:00;8;7;
46126;PMS5003;31859;55.030;-1.550;2022-07-23T04:19:27;13;11;
46126;PMS5003;31859;55.030;-1.550;2022-07-23T04:21:54;13;12;
46126;PMS5003;31859;55.030;-1.550;2022-07-23T04:24:21;10;10;
46126;PMS5003;31859;55.030;-1.550;2022-07-23T04:26:49;11;9;
46126;PMS5003;31859;55.030;-1.550;2022-07-23T04:29:16;13;10;
46126;PMS5003;31859;55.030;-1.550;2022-07-23T04:31:43;10;10;
46126;PMS5003;31859;55.030;-1.550;2022-07-23T04:34:10;13;11;
46126;PMS5003;31859;55.030;-1.550;2022-07-23T04:36:37;11;9;
46126;PMS5003;31859;55.030;-1.550;2022-07-23T04:39:04;10;10;
46126;PMS5003;31859;55.030;-1.550;2022-07-23T04:41:31;15;14;
46126;PMS5003;31859;55.030;-1.550;2022-07-23T04:43:59;13;12;
46126;PMS5003;31859;55.030;-1.550;2022-07-23T04:46:27;11;9;
46126;PMS5003;31859;55.030;-1.550;2022-07-23T04:48:54;13;10;
46126;PMS5003;31859;55.030;-1.550;2022-07-23T04:51:21;14;13;
46126;PMS5003;31859;55.030;-1.550;2022-07-23T04:53:48;14;12;
46126;PMS5003;31859;55.030;-1.550;2022-07-23T04:56:15;16;12;
46126;PMS5003;31859;55.030;-1.550;2022-07-23T04:58:43;12;12;
46126;PMS5003;31859;55.030;-1.550;2022-07-23T05:01:10;18;18;
46126;PMS5003;31859;55.030;-1.550;2022-07-23T05:03:37;13;10;
46126;PMS5003;31859;55.030;-1.550;2022-07-23T05:06:04;14;14;
46126;PMS5003;31859;55.030;-1.550;2022-07-23T05:08:31;17;15;
46126;PMS5003;31859;55.030;-1.550;2022-07-23T05:10:59;15;15;
46126;PMS5003;31859;55.030;-1.550;2022-07-23T05:13:26;13;12;
46126;PMS5003;31859;55.030;-1.550;2022-07-23T05:15:53;18;18;
46126;PMS5003;31859;55.030;-1.550;2022-07-23T05:18:20;15;15;
46126;PMS5003;31859;55.030;-1.550;2022-07-23T05:20:47;28;20;
46126;PMS5003;31859;55.030;-1.550;2022-07-23T05:23:15;19;17;
46126;PMS5003;31859;55.030;-1.550;2022-07-23T05:25:42;24;20;
46126;PMS5003;31859;55.030;-1.550;2022-07-23T05:28:10;16;14;
46126;PMS5003;31859;55.030;-1.550;2022-07-23T05:30:37;22;22;
46126;PMS5003;31859;55.030;-1.550;2022-07-23T05:33:04;25;19;
46126;PMS5003;31859;55.030;-1.550;2022-07-23T05:35:31;18;16;
46126;PMS5003;31859;55.030;-1.550;2022-07-23T05:37:59;19;17;
46126;PMS5003;31859;55.030;-1.550;2022-07-23T05:40:26;21;17;
46126;PMS5003;31859;55.030;-1.550;2022-07-23T05:42:53;18;17;
46126;PMS5003;31859;55.030;-1.550;2022-07-23T05:45:20;26;26;
46126;PMS5003;31859;55.030;-1.550;2022-07-23T05:47:48;18;18;
46126;PMS5003;31859;55.030;-1.550;2022-07-23T05:50:16;20;20;
46126;PMS5003;31859;55.030;-1.550;2022-07-23T05:52:43;22;22;
46126;PMS5003;31859;55.030;-1.550;2022-07-23T05:55:11;20;19;
46126;PMS5003;31859;55.030;-1.550;2022-07-23T05:57:39;21;19;
46126;PMS5003;31859;55.030;-1.550;2022-07-23T06:00:07;21;18;
46126;PMS5003;31859;55.030;-1.550;2022-07-23T06:02:35;19;17;
46126;PMS5003;31859;55.030;-1.550;2022-07-23T06:05:05;18;17;
46126;PMS5003;31859;55.030;-1.550;2022-07-23T06:07:33;24;22;
46126;PMS5003;31859;55.030;-1.550;2022-07-23T06:10:02;18;18;
46126;PMS5003;31859;55.030;-1.550;2022-07-23T06:12:31;22;20;
46126;PMS5003;31859;55.030;-1.550;2022-07-23T06:14:58;19;18;
46126;PMS5003;31859;55.030;-1.550;2022-07-23T06:17:25;17;17;
46126;PMS5003;31859;55.030;-1.550;2022-07-23T06:19:52;18;16;
46126;PMS5003;31859;55.030;-1.550;2022-07-23T06:22:20;20;19;
46126;PMS5003;31859;55.030;-1.550;2022-07-23T06:24:48;23;19;
46126;PMS5003;31859;55.030;-1.550;2022-07-23T06:27:16;27;26;
46126;PMS5003;31859;55.030;-1.550;2022-07-23T06:29:43;21;20;
46126;PMS5003;31859;55.030;-1.550;2022-07-23T06:32:10;27;26;
46126;PMS5003;31859;55.030;-1.550;2022-07-23T06:34:37;29;27;
46126;PMS5003;31859;55.030;-1.550;2022-07-23T06:37:03;24;24;
46126;PMS5003;31859;55.030;-1.550;2022-07-23T06:39:31;26;24;
46126;PMS5003;31859;55.030;-1.550;2022-07-23T06:41:58;27;23;
46126;PMS5003;31859;55.030;-1.550;2022-07-23T06:44:26;18;18;
46126;PMS5003;31859;55.030;-1.550;2022-07-23T06:46:53;19;17;
46126;PMS5003;31859;55.030;-1.550;2022-07-23T06:49:21;22;22;
46126;PMS5003;31859;55.030;-1.550;2022-07-23T06:51:48;23;20;
46126;PMS5003;31859;55.030;-1.550;2022-07-23T06:54:15;31;27;
46126;PMS5003;31859;55.030;-1.550;2022-07-23T06:56:42;29;28;
46126;PMS5003;31859;55.030;-1.550;2022-07-23T06:59:10;21;20;
46126;PMS5003;31859;55.030;-1.550;2022-07-23T07:01:38;17;17;
46126;PMS5003;31859;55.030;-1.550;2022-07-23T07:04:05;24;22;
46126;PMS5003;31859;55.030;-1.550;2022-07-23T07:06:31;26;24;
46126;PMS5003;31859;55.030;-1.550;2022-07-23T07:08:59;25;21;
46126;PMS5003;31859;55.030;-1.550;2022-07-23T07:11:26;24;20;
46126;PMS5003;31859;55.030;-1.550;2022-07-23T07:13:53;14;14;
46126;PMS5003;31859;55.030;-1.550;2022-07-23T07:16:20;19;19;
46126;PMS5003;31859;55.030;-1.550;2022-07-23T07:18:48;17;16;
46126;PMS5003;31859;55.030;-1.550;2022-07-23T07:21:15;23;17;
46126;PMS5003;31859;55.030;-1.550;2022-07-23T07:23:41;18;16;
46126;PMS5003;31859;55.030;-1.550;2022-07-23T07:26:08;24;22;
46126;PMS5003;31859;55.030;-1.550;2022-07-23T07:28:36;21;19;
46126;PMS5003;31859;55.030;-1.550;2022-07-23T07:31:03;20;17;
46126;PMS5003;31859;55.030;-1.550;2022-07-23T07:33:31;17;16;
46126;PMS5003;31859;55.030;-1.550;2022-07-23T07:35:58;16;15;
46126;PMS5003;31859;55.030;-1.550;2022-07-23T07:38:26;19;17;
46126;PMS5003;31859;55.030;-1.550;2022-07-23T07:40:53;22;17;
46126;PMS5003;31859;55.030;-1.550;2022-07-23T07:43:20;15;13;
46126;PMS5003;31859;55.030;-1.550;2022-07-23T07:45:48;16;15;
46126;PMS5003;31859;55.030;-1.550;2022-07-23T07:48:15;16;16;
46126;PMS5003;31859;55.030;-1.550;2022-07-23T07:50:42;17;13;
46126;PMS5003;31859;55.030;-1.550;2022-07-23T07:53:10;15;13;
46126;PMS5003;31859;55.030;-1.550;2022-07-23T07:55:37;17;15;
46126;PMS5003;31859;55.030;-1.550;2022-07-23T07:58:04;17;15;
46126;PMS5003;31859;55.030;-1.550;2022-07-23T08:00:31;17;15;
46126;PMS5003;31859;55.030;-1.550;2022-07-23T08:02:59;20;20;
46126;PMS5003;31859;55.030;-1.550;2022-07-23T08:05:26;20;20;
46126;PMS5003;31859;55.030;-1.550;2022-07-23T08:07:55;15;14;
46126;PMS5003;31859;55.030;-1.550;2022-07-23T08:10:24;14;13;
46126;PMS5003;31859;55.030;-1.550;2022-07-23T08:12:52;15;14;
46126;PMS5003;31859;55.030;-1.550;2022-07-23T08:15:21;13;13;
46126;PMS5003;31859;55.030;-1.550;2022-07-23T08:17:50;14;13;
46126;PMS5003;31859;55.030;-1.550;2022-07-23T08:20:19;22;19;
46126;PMS5003;31859;55.030;-1.550;2022-07-23T08:22:48;13;12;
46126;PMS5003;31859;55.030;-1.550;2022-07-23T08:25:19;18;17;
46126;PMS5003;31859;55.030;-1.550;2022-07-23T08:27:48;16;16;
46126;PMS5003;31859;55.030;-1.550;2022-07-23T08:30:15;18;18;
46126;PMS5003;31859;55.030;-1.550;2022-07-23T08:32:51;14;14;
46126;PMS5003;31859;55.030;-1.550;2022-07-23T08:35:21;15;12;
46126;PMS5003;31859;55.030;-1.550;2022-07-23T08:37:50;14;14;
46126;PMS5003;31859;55.030;-1.550;2022-07-23T08:40:18;12;12;
46126;PMS5003;31859;55.030;-1.550;2022-07-23T08:42:47;13;13;
46126;PMS5003;31859;55.030;-1.550;2022-07-23T08:45:16;23;21;
46126;PMS5003;31859;55.030;-1.550;2022-07-23T08:47:46;13;13;
46126;PMS5003;31859;55.030;-1.550;2022-07-23T08:50:16;11;11;
46126;PMS5003;31859;55.030;-1.550;2022-07-23T08:52:43;12;11;
46126;PMS5003;31859;55.030;-1.550;2022-07-23T08:55:11;18;18;
46126;PMS5003;31859;55.030;-1.550;2022-07-23T08:57:38;13;11;
46126;PMS5003;31859;55.030;-1.550;2022-07-23T09:00:06;12;11;
46126;PMS5003;31859;55.030;-1.550;2022-07-23T09:02:38;10;9;
46126;PMS5003;31859;55.030;-1.550;2022-07-23T09:05:07;11;7;
46126;PMS5003;31859;55.030;-1.550;2022-07-23T09:07:35;13;9;
46126;PMS5003;31859;55.030;-1.550;2022-07-23T09:10:05;11;11;
46126;PMS5003;31859;55.030;-1.550;2022-07-23T09:12:35;16;16;
46126;PMS5003;31859;55.030;-1.550;2022-07-23T09:15:04;11;11;
46126;PMS5003;31859;55.030;-1.550;2022-07-23T09:17:37;11;11;
46126;PMS5003;31859;55.030;-1.550;2022-07-23T09:20:07;13;11;
46126;PMS5003;31859;55.030;-1.550;2022-07-23T09:22:37;11;11;
46126;PMS5003;31859;55.030;-1.550;2022-07-23T09:25:08;9;9;
46126;PMS5003;31859;55.030;-1.550;2022-07-23T09:25:12;9;9;
46126;PMS5003;31859;55.030;-1.550;2022-07-23T09:27:49;13;11;
46126;PMS5003;31859;55.030;-1.550;2022-07-23T09:30:19;12;11;
46126;PMS5003;31859;55.030;-1.550;2022-07-23T09:33:04;11;8;
46126;PMS5003;31859;55.030;-1.550;2022-07-23T09:35:49;6;6;
46126;PMS5003;31859;55.030;-1.550;2022-07-23T09:38:18;13;10;
46126;PMS5003;31859;55.030;-1.550;2022-07-23T09:40:47;12;9;
46126;PMS5003;31859;55.030;-1.550;2022-07-23T09:43:31;13;11;
46126;PMS5003;31859;55.030;-1.550;2022-07-23T09:46:16;13;12;
46126;PMS5003;31859;55.030;-1.550;2022-07-23T09:48:44;11;8;
46126;PMS5003;31859;55.030;-1.550;2022-07-23T09:51:11;12;10;
46126;PMS5003;31859;55.030;-1.550;2022-07-23T09:53:38;9;7;
46126;PMS5003;31859;55.030;-1.550;2022-07-23T09:56:05;13;11;
46126;PMS5003;31859;55.030;-1.550;2022-07-23T09:58:35;9;9;
46126;PMS5003;31859;55.030;-1.550;2022-07-23T10:01:06;9;9;
46126;PMS5003;31859;55.030;-1.550;2022-07-23T10:03:34;11;10;
46126;PMS5003;31859;55.030;-1.550;2022-07-23T10:06:03;7;7;
46126;PMS5003;31859;55.030;-1.550;2022-07-23T10:08:30;12;11;
46126;PMS5003;31859;55.030;-1.550;2022-07-23T10:10:59;12;11;
46126;PMS5003;31859;55.030;-1.550;2022-07-23T10:13:28;12;10;
46126;PMS5003;31859;55.030;-1.550;2022-07-23T10:15:56;14;11;
46126;PMS5003;31859;55.030;-1.550;2022-07-23T10:18:24;17;15;
46126;PMS5003;31859;55.030;-1.550;2022-07-23T10:20:52;14;10;
46126;PMS5003;31859;55.030;-1.550;2022-07-23T10:23:22;8;8;
46126;PMS5003;31859;55.030;-1.550;2022-07-23T10:25:57;12;12;
46126;PMS5003;31859;55.030;-1.550;2022-07-23T10:28:41;13;10;
46126;PMS5003;31859;55.030;-1.550;2022-07-23T10:31:27;9;8;
46126;PMS5003;31859;55.030;-1.550;2022-07-23T10:34:04;11;10;
46126;PMS5003;31859;55.030;-1.550;2022-07-23T10:36:39;9;9;
46126;PMS5003;31859;55.030;-1.550;2022-07-23T10:39:13;8;8;
46126;PMS5003;31859;55.030;-1.550;2022-07-23T10:41:46;9;8;
46126;PMS5003;31859;55.030;-1.550;2022-07-23T10:44:14;9;8;
46126;PMS5003;31859;55.030;-1.550;2022-07-23T10:47:00;9;8;
46126;PMS5003;31859;55.030;-1.550;2022-07-23T10:49:29;8;8;
46126;PMS5003;31859;55.030;-1.550;2022-07-23T10:52:30;6;6;
46126;PMS5003;31859;55.030;-1.550;2022-07-23T10:58:06;11;9;
46126;PMS5003;31859;55.030;-1.550;2022-07-23T11:00:34;6;6;
46126;PMS5003;31859;55.030;-1.550;2022-07-23T11:03:03;6;6;
46126;PMS5003;31859;55.030;-1.550;2022-07-23T11:05:53;6;5;
46126;PMS5003;31859;55.030;-1.550;2022-07-23T11:08:21;5;5;
46126;PMS5003;31859;55.030;-1.550;2022-07-23T11:10:49;6;5;
46126;PMS5003;31859;55.030;-1.550;2022-07-23T11:13:26;3;3;
46126;PMS5003;31859;55.030;-1.550;2022-07-23T11:16:13;5;5;
46126;PMS5003;31859;55.030;-1.550;2022-07-23T11:19:16;4;4;
46126;PMS5003;31859;55.030;-1.550;2022-07-23T11:21:44;6;5;
46126;PMS5003;31859;55.030;-1.550;2022-07-23T11:24:18;5;5;
46126;PMS5003;31859;55.030;-1.550;2022-07-23T11:26:49;5;5;
46126;PMS5003;31859;55.030;-1.550;2022-07-23T11:29:37;3;3;
46126;PMS5003;31859;55.030;-1.550;2022-07-23T11:32:07;5;5;
46126;PMS5003;31859;55.030;-1.550;2022-07-23T11:34:45;4;4;
46126;PMS5003;31859;55.030;-1.550;2022-07-23T11:37:26;3;3;
46126;PMS5003;31859;55.030;-1.550;2022-07-23T11:39:59;3;3;
46126;PMS5003;31859;55.030;-1.550;2022-07-23T11:42:27;4;4;
46126;PMS5003;31859;55.030;-1.550;2022-07-23T11:44:55;6;4;
46126;PMS5003;31859;55.030;-1.550;2022-07-23T11:47:22;6;5;
46126;PMS5003;31859;55.030;-1.550;2022-07-23T11:49:52;4;4;
46126;PMS5003;31859;55.030;-1.550;2022-07-23T11:52:21;4;4;
46126;PMS5003;31859;55.030;-1.550;2022-07-23T11:54:49;4;4;
46126;PMS5003;31859;55.030;-1.550;2022-07-23T11:57:19;6;6;
46126;PMS5003;31859;55.030;-1.550;2022-07-23T11:59:51;4;4;
46126;PMS5003;31859;55.030;-1.550;2022-07-23T12:02:21;2;2;
46126;PMS5003;31859;55.030;-1.550;2022-07-23T12:04:49;7;6;
46126;PMS5003;31859;55.030;-1.550;2022-07-23T12:07:34;4;4;
46126;PMS5003;31859;55.030;-1.550;2022-07-23T12:10:04;4;4;
46126;PMS5003;31859;55.030;-1.550;2022-07-23T12:12:37;5;5;
46126;PMS5003;31859;55.030;-1.550;2022-07-23T12:15:06;9;6;
46126;PMS5003;31859;55.030;-1.550;2022-07-23T12:17:34;5;5;
46126;PMS5003;31859;55.030;-1.550;2022-07-23T12:20:04;7;7;
46126;PMS5003;31859;55.030;-1.550;2022-07-23T12:22:34;5;5;
46126;PMS5003;31859;55.030;-1.550;2022-07-23T12:25:04;6;5;
46126;PMS5003;31859;55.030;-1.550;2022-07-23T12:27:33;6;5;
46126;PMS5003;31859;55.030;-1.550;2022-07-23T12:30:18;5;5;
46126;PMS5003;31859;55.030;-1.550;2022-07-23T12:32:47;8;7;
46126;PMS5003;31859;55.030;-1.550;2022-07-23T12:35:16;6;6;
46126;PMS5003;31859;55.030;-1.550;2022-07-23T12:37:44;5;5;
46126;PMS5003;31859;55.030;-1.550;2022-07-23T12:40:21;6;6;
46126;PMS5003;31859;55.030;-1.550;2022-07-23T12:42:51;7;7;
46126;PMS5003;31859;55.030;-1.550;2022-07-23T12:45:20;13;11;
46126;PMS5003;31859;55.030;-1.550;2022-07-23T12:47:52;8;8;
46126;PMS5003;31859;55.030;-1.550;2022-07-23T12:51:26;7;6;
46126;PMS5003;31859;55.030;-1.550;2022-07-23T12:53:56;12;12;
46126;PMS5003;31859;55.030;-1.550;2022-07-23T12:56:27;9;7;
46126;PMS5003;31859;55.030;-1.550;2022-07-23T12:58:56;7;7;
46126;PMS5003;31859;55.030;-1.550;2022-07-23T13:01:26;8;7;
46126;PMS5003;31859;55.030;-1.550;2022-07-23T13:03:55;6;6;
46126;PMS5003;31859;55.030;-1.550;2022-07-23T13:06:25;5;3;
46126;PMS5003;31859;55.030;-1.550;2022-07-23T13:08:53;5;5;
46126;PMS5003;31859;55.030;-1.550;2022-07-23T13:11:21;6;5;
46126;PMS5003;31859;55.030;-1.550;2022-07-23T13:13:48;4;3;
46126;PMS5003;31859;55.030;-1.550;2022-07-23T13:16:16;7;7;
46126;PMS5003;31859;55.030;-1.550;2022-07-23T13:18:44;6;6;
46126;PMS5003;31859;55.030;-1.550;2022-07-23T13:21:11;7;5;
46126;PMS5003;31859;55.030;-1.550;2022-07-23T13:23:38;5;5;
46126;PMS5003;31859;55.030;-1.550;2022-07-23T13:26:05;5;5;
46126;PMS5003;31859;55.030;-1.550;2022-07-23T13:28:32;3;3;
46126;PMS5003;31859;55.030;-1.550;2022-07-23T13:31:00;4;4;
46126;PMS5003;31859;55.030;-1.550;2022-07-23T13:33:28;6;4;
46126;PMS5003;31859;55.030;-1.550;2022-07-23T13:35:54;4;4;
46126;PMS5003;31859;55.030;-1.550;2022-07-23T13:38:22;5;5;
46126;PMS5003;31859;55.030;-1.550;2022-07-23T13:40:50;5;4;
46126;PMS5003;31859;55.030;-1.550;2022-07-23T13:43:18;5;5;
46126;PMS5003;31859;55.030;-1.550;2022-07-23T13:45:48;4;4;
46126;PMS5003;31859;55.030;-1.550;2022-07-23T13:48:16;4;3;
46126;PMS5003;31859;55.030;-1.550;2022-07-23T13:50:45;3;3;
46126;PMS5003;31859;55.030;-1.550;2022-07-23T13:53:14;4;3;
46126;PMS5003;31859;55.030;-1.550;2022-07-23T13:55:43;3;3;
46126;PMS5003;31859;55.030;-1.550;2022-07-23T13:58:12;4;4;
46126;PMS5003;31859;55.030;-1.550;2022-07-23T14:00:41;6;6;
46126;PMS5003;31859;55.030;-1.550;2022-07-23T14:03:10;5;5;
46126;PMS5003;31859;55.030;-1.550;2022-07-23T14:05:38;6;6;
46126;PMS5003;31859;55.030;-1.550;2022-07-23T14:08:06;8;7;
46126;PMS5003;31859;55.030;-1.550;2022-07-23T14:10:34;4;4;
46126;PMS5003;31859;55.030;-1.550;2022-07-23T14:13:01;7;7;
46126;PMS5003;31859;55.030;-1.550;2022-07-23T14:15:30;6;6;
46126;PMS5003;31859;55.030;-1.550;2022-07-23T14:17:57;7;5;
46126;PMS5003;31859;55.030;-1.550;2022-07-23T14:20:26;10;6;
46126;PMS5003;31859;55.030;-1.550;2022-07-23T14:22:53;7;7;
46126;PMS5003;31859;55.030;-1.550;2022-07-23T14:25:20;9;7;
46126;PMS5003;31859;55.030;-1.550;2022-07-23T14:27:47;5;5;
46126;PMS5003;31859;55.030;-1.550;2022-07-23T14:30:15;10;8;
46126;PMS5003;31859;55.030;-1.550;2022-07-23T14:32:41;7;6;
46126;PMS5003;31859;55.030;-1.550;2022-07-23T14:35:08;7;7;
46126;PMS5003;31859;55.030;-1.550;2022-07-23T14:37:36;9;6;
46126;PMS5003;31859;55.030;-1.550;2022-07-23T14:40:05;6;6;
46126;PMS5003;31859;55.030;-1.550;2022-07-23T14:42:32;8;8;
46126;PMS5003;31859;55.030;-1.550;2022-07-23T14:44:59;6;6;
46126;PMS5003;31859;55.030;-1.550;2022-07-23T14:47:27;10;9;
46126;PMS5003;31859;55.030;-1.550;2022-07-23T14:49:54;9;8;
46126;PMS5003;31859;55.030;-1.550;2022-07-23T14:52:21;7;6;
46126;PMS5003;31859;55.030;-1.550;2022-07-23T14:54:48;10;10;
46126;PMS5003;31859;55.030;-1.550;2022-07-23T14:57:15;10;10;
46126;PMS5003;31859;55.030;-1.550;2022-07-23T14:59:42;8;6;
46126;PMS5003;31859;55.030;-1.550;2022-07-23T15:02:09;14;11;
46126;PMS5003;31859;55.030;-1.550;2022-07-23T15:04:36;10;10;
46126;PMS5003;31859;55.030;-1.550;2022-07-23T15:07:04;12;10;
46126;PMS5003;31859;55.030;-1.550;2022-07-23T15:09:31;10;10;
46126;PMS5003;31859;55.030;-1.550;2022-07-23T15:11:59;7;7;
46126;PMS5003;31859;55.030;-1.550;2022-07-23T15:14:26;11;11;
46126;PMS5003;31859;55.030;-1.550;2022-07-23T15:16:53;10;9;
46126;PMS5003;31859;55.030;-1.550;2022-07-23T15:19:20;13;10;
46126;PMS5003;31859;55.030;-1.550;2022-07-23T15:21:47;9;8;
46126;PMS5003;31859;55.030;-1.550;2022-07-23T15:24:14;10;8;
46126;PMS5003;31859;55.030;-1.550;2022-07-23T15:26:41;10;9;
46126;PMS5003;31859;55.030;-1.550;2022-07-23T15:29:07;14;13;
46126;PMS5003;31859;55.030;-1.550;2022-07-23T15:31:34;11;10;
46126;PMS5003;31859;55.030;-1.550;2022-07-23T15:34:01;8;8;
46126;PMS5003;31859;55.030;-1.550;2022-07-23T15:36:29;9;8;
46126;PMS5003;31859;55.030;-1.550;2022-07-23T15:38:56;9;9;
46126;PMS5003;31859;55.030;-1.550;2022-07-23T15:41:23;15;12;
46126;PMS5003;31859;55.030;-1.550;2022-07-23T15:43:50;10;8;
46126;PMS5003;31859;55.030;-1.550;2022-07-23T15:46:18;10;9;
46126;PMS5003;31859;55.030;-1.550;2022-07-23T15:48:44;7;6;
46126;PMS5003;31859;55.030;-1.550;2022-07-23T15:51:12;7;6;
46126;PMS5003;31859;55.030;-1.550;2022-07-23T15:53:39;10;8;
46126;PMS5003;31859;55.030;-1.550;2022-07-23T15:56:06;11;8;
46126;PMS5003;31859;55.030;-1.550;2022-07-23T15:58:35;10;10;
46126;PMS5003;31859;55.030;-1.550;2022-07-23T16:01:03;13;10;
46126;PMS5003;31859;55.030;-1.550;2022-07-23T16:03:31;14;13;
46126;PMS5003;31859;55.030;-1.550;2022-07-23T16:06:00;10;8;
46126;PMS5003;31859;55.030;-1.550;2022-07-23T16:08:27;9;7;
46126;PMS5003;31859;55.030;-1.550;2022-07-23T16:10:55;10;10;
46126;PMS5003;31859;55.030;-1.550;2022-07-23T16:13:22;12;11;
46126;PMS5003;31859;55.030;-1.550;2022-07-23T16:15:50;14;11;
46126;PMS5003;31859;55.030;-1.550;2022-07-23T16:18:18;9;9;
46126;PMS5003;31859;55.030;-1.550;2022-07-23T16:20:45;14;14;
46126;PMS5003;31859;55.030;-1.550;2022-07-23T16:23:12;8;8;
46126;PMS5003;31859;55.030;-1.550;2022-07-23T16:25:39;10;9;
46126;PMS5003;31859;55.030;-1.550;2022-07-23T16:28:07;12;9;